Time;durP1;ratioP1;P1;durP2;ratioP2;P2;SDS_P1;SDS_P2;PMS_P1;PMS_P2;Temp;Humidity;BMP_temperature;BMP_pressure;BME280_temperature;BME280_humidity;BME280_pressure;Samples;Min_cycle;Max_cycle;Signal;HPM_P1;HPM_P2
2023/12/27 00:00:59;;;;;;;;;;;12.60;55.10;;;12.73;58.39;101288.81;5076129;28;19975;-37
2023/12/27 00:03:27;;;;;;;;;;;12.60;55.10;;;12.74;57.95;101289.72;5074496;28;20307;-37
2023/12/27 00:05:56;;;;;;;;;;;12.60;55.10;;;12.70;58.06;101288.41;5072966;28;19925;-37
2023/12/27 00:08:24;;;;;;;;;;;12.60;55.10;;;12.73;58.40;101298.84;5073565;28;19925;-36
2023/12/27 00:10:52;;;;;;;;;;;12.60;55.10;;;12.70;58.55;101298.47;5073955;28;19931;-37
2023/12/27 00:13:22;;;;;;;;;;;12.60;55.10;;;12.71;57.50;101315.34;5073721;28;19924;-36
2023/12/27 00:15:50;;;;;;;;;;;12.60;55.10;;;12.70;58.09;101308.53;5073084;28;19925;-35
2023/12/27 00:18:18;;;;;;;;;;;12.50;55.00;;;12.70;58.32;101308.53;5072379;28;19924;-36
2023/12/27 00:20:47;;;;;;;;;;;12.50;55.00;;;12.70;58.29;101312.66;5073443;28;19928;-38
2023/12/27 00:23:15;;;;;;;;;;;12.50;55.00;;;12.70;58.14;101322.72;5068274;28;19924;-37
2023/12/27 00:25:43;;;;;;;;;;;12.50;55.00;;;12.69;58.60;101321.81;5072823;28;19970;-35
2023/12/27 00:28:11;;;;;;;;;;;12.50;55.00;;;12.69;58.68;101326.84;5072169;28;19976;-37
2023/12/27 00:30:41;;;;;;;;;;;12.50;55.00;;;12.68;57.87;101314.06;5072695;28;19934;-35
2023/12/27 00:33:09;;;;;;;;;;;12.50;55.60;;;12.67;58.34;101313.13;5072379;28;19986;-36
2023/12/27 00:35:37;;;;;;;;;;;12.50;55.00;;;12.66;58.21;101311.31;5072538;28;19971;-35
2023/12/27 00:38:05;;;;;;;;;;;12.50;54.90;;;12.67;58.54;101313.13;5072403;28;19935;-36
2023/12/27 00:40:33;;;;;;;;;;;12.50;55.00;;;12.66;58.88;101316.34;5072343;28;20376;-36
2023/12/27 00:43:01;;;;;;;;;;;12.50;55.00;;;12.65;57.90;101324.59;5072193;28;20011;-36
2023/12/27 00:45:28;;;;;;;;;;;12.50;54.90;;;12.66;58.99;101330.53;5072171;28;19978;-36
2023/12/27 00:47:58;;;;;;;;;;;12.50;54.90;;;12.65;57.94;101332.13;5072277;28;19924;-37
2023/12/27 00:50:26;;;;;;;;;;;12.50;54.90;;;12.65;58.44;101324.59;5072305;28;19925;-37
2023/12/27 00:52:54;;;;;;;;;;;12.50;55.00;;;12.64;58.01;101327.84;5072094;28;20019;-36
2023/12/27 00:55:22;;;;;;;;;;;12.50;54.90;;;12.63;58.81;101326.03;5071849;28;19931;-36
2023/12/27 00:57:50;;;;;;;;;;;12.50;55.00;;;12.64;58.87;101322.81;5071275;28;20273;-36
2023/12/27 01:00:18;;;;;;;;;;;12.50;54.90;;;12.63;58.36;101322.59;5071776;28;19925;-37
2023/12/27 01:02:46;;;;;;;;;;;12.50;54.90;;;12.62;58.07;101318.28;5072197;28;19928;-36
2023/12/27 01:05:15;;;;;;;;;;;12.50;54.90;;;12.63;58.65;101326.03;5073153;28;19924;-36
2023/12/27 01:07:43;;;;;;;;;;;12.50;55.00;;;12.62;58.34;101314.16;5075803;28;19925;-36
2023/12/27 01:10:10;;;;;;;;;;;12.50;54.90;;;12.62;58.39;101311.63;5075804;28;20451;-36
2023/12/27 01:12:38;;;;;;;;;;;12.50;54.90;;;12.61;58.63;101307.31;5075828;28;19940;-35
2023/12/27 01:15:07;;;;;;;;;;;12.40;54.90;;;12.62;58.45;101309.13;5075549;28;20288;-36
2023/12/27 01:17:35;;;;;;;;;;;12.50;54.90;;;12.61;58.08;101302.28;5075601;28;19964;-36
2023/12/27 01:20:03;;;;;;;;;;;12.40;54.90;;;12.61;58.60;101319.88;5075690;28;20384;-36
2023/12/27 01:22:33;;;;;;;;;;;12.40;54.90;;;12.61;57.81;101317.34;5071517;28;20406;-36
2023/12/27 01:25:01;;;;;;;;;;;12.50;54.90;;;12.61;58.28;101322.38;5075234;28;19924;-36
2023/12/27 01:27:29;;;;;;;;;;;12.40;54.80;;;12.61;58.08;101321.47;5075185;28;19931;-36
2023/12/27 01:29:57;;;;;;;;;;;12.40;54.80;;;12.61;58.38;101317.34;5075566;28;20396;-36
2023/12/27 01:32:25;;;;;;;;;;;12.40;54.80;;;12.62;58.42;101314.16;5075784;28;19925;-36
2023/12/27 01:34:53;;;;;;;;;;;12.40;54.90;;;12.60;57.85;101315.53;5075325;28;19982;-36
2023/12/27 01:37:21;;;;;;;;;;;12.40;54.80;;;12.61;58.36;101317.34;5075172;28;19924;-36
2023/12/27 01:39:51;;;;;;;;;;;12.50;54.90;;;12.61;58.27;101312.34;5080739;28;20398;-36
2023/12/27 01:42:19;;;;;;;;;;;12.40;54.80;;;12.61;58.14;101307.31;5072783;28;19931;-37
2023/12/27 01:44:46;;;;;;;;;;;12.40;54.80;;;12.62;58.11;101324.19;5077413;28;19939;-36
2023/12/27 01:47:14;;;;;;;;;;;12.50;54.90;;;12.62;58.34;101324.19;5075250;28;20024;-36
2023/12/27 01:49:42;;;;;;;;;;;12.50;54.90;;;12.61;57.95;101312.34;5075224;28;19967;-36
2023/12/27 01:52:11;;;;;;;;;;;12.50;54.90;;;12.62;58.46;101314.16;5074703;28;19924;-36
2023/12/27 01:54:39;;;;;;;;;;;12.50;54.90;;;12.62;57.46;101309.13;5075234;28;19925;-36
2023/12/27 01:57:08;;;;;;;;;;;12.50;54.90;;;12.60;58.10;101310.50;5074568;28;19928;-36
2023/12/27 01:59:36;;;;;;;;;;;12.50;54.80;;;12.61;57.59;101307.31;5075612;28;19928;-36
2023/12/27 02:02:04;;;;;;;;;;;12.50;54.80;;;12.63;58.36;101305.91;5075256;28;20015;-36
2023/12/27 02:04:32;;;;;;;;;;;12.50;54.80;;;12.62;57.78;101304.09;5075239;28;19931;-36
2023/12/27 02:07:00;;;;;;;;;;;12.50;54.80;;;12.61;57.72;101307.31;5075561;28;19947;-36
2023/12/27 02:09:29;;;;;;;;;;;12.50;54.80;;;12.62;58.18;101304.09;5076498;28;19974;-36
2023/12/27 02:11:57;;;;;;;;;;;12.50;54.80;;;12.62;58.38;101299.06;5074648;28;19929;-36
2023/12/27 02:14:26;;;;;;;;;;;12.50;54.80;;;12.61;57.59;101307.31;5074737;28;19928;-36
2023/12/27 02:16:54;;;;;;;;;;;12.50;54.80;;;12.62;58.19;101299.06;5073511;28;20011;-36
2023/12/27 02:19:22;;;;;;;;;;;12.50;54.80;;;12.62;58.67;101305.69;5074896;28;20019;-36
2023/12/27 02:21:50;;;;;;;;;;;12.40;54.70;;;12.60;57.28;101300.47;5074690;28;19924;-36
2023/12/27 02:24:19;;;;;;;;;;;12.40;54.70;;;12.60;57.43;101308.00;5074692;28;19930;-34
2023/12/27 02:26:48;;;;;;;;;;;12.40;54.70;;;12.60;57.76;101305.50;5074221;28;19929;-35
2023/12/27 02:29:16;;;;;;;;;;;12.40;54.70;;;12.60;58.24;101305.50;5074500;28;19975;-36
2023/12/27 02:31:44;;;;;;;;;;;12.40;54.70;;;12.60;57.92;101310.50;5074294;28;19925;-36
2023/12/27 02:34:12;;;;;;;;;;;12.40;54.70;;;12.59;57.39;101311.22;5074597;28;19924;-37
2023/12/27 02:36:40;;;;;;;;;;;12.40;54.70;;;12.56;58.38;101295.75;5074061;28;19936;-35
2023/12/27 02:39:08;;;;;;;;;;;12.40;54.70;;;12.58;58.79;101306.91;5074299;28;19925;-37
2023/12/27 02:41:36;;;;;;;;;;;12.40;54.70;;;12.56;57.27;101293.22;5074338;28;20273;-36
2023/12/27 02:44:06;;;;;;;;;;;12.40;54.70;;;12.58;57.91;101296.84;5074028;28;20370;-36
2023/12/27 02:46:34;;;;;;;;;;;12.40;54.70;;;12.58;57.64;101299.38;5074232;28;20582;-36
2023/12/27 02:49:01;;;;;;;;;;;12.40;54.70;;;12.56;58.24;101298.25;5073766;28;20007;-36
2023/12/27 02:51:29;;;;;;;;;;;12.40;54.70;;;12.56;57.90;101293.22;5074722;28;19971;-36
2023/12/27 02:53:57;;;;;;;;;;;12.40;54.70;;;12.55;57.82;101285.47;5074962;28;19959;-37
2023/12/27 02:56:25;;;;;;;;;;;12.40;54.70;;;12.56;58.24;101298.25;5074418;28;20338;-36
2023/12/27 02:58:53;;;;;;;;;;;12.40;54.70;;;12.56;58.07;101293.22;5073309;28;20010;-36
2023/12/27 03:01:23;;;;;;;;;;;12.40;54.70;;;12.57;57.91;101299.16;5074104;28;19925;-36
2023/12/27 03:03:51;;;;;;;;;;;12.40;54.70;;;12.57;57.97;101287.50;5076274;28;19928;-36
2023/12/27 03:06:18;;;;;;;;;;;12.40;54.70;;;12.55;57.69;101286.38;5074113;28;20011;-36
2023/12/27 03:08:46;;;;;;;;;;;12.40;54.70;;;12.56;58.26;101283.16;5074605;28;19930;-36
2023/12/27 03:11:14;;;;;;;;;;;12.40;54.60;;;12.56;57.93;101288.19;5075129;28;20392;-36
2023/12/27 03:13:43;;;;;;;;;;;12.40;54.60;;;12.56;58.67;101290.72;5075674;28;19975;-36
2023/12/27 03:16:11;;;;;;;;;;;12.40;54.60;;;12.55;57.72;101278.84;5074441;28;19931;-36
2023/12/27 03:18:40;;;;;;;;;;;12.40;54.60;;;12.56;57.67;101283.16;5073718;28;19931;-36
2023/12/27 03:21:08;;;;;;;;;;;12.40;54.60;;;12.54;58.42;101279.53;5074089;28;20027;-36
2023/12/27 03:23:36;;;;;;;;;;;12.40;54.70;;;12.55;58.17;101281.34;5068880;28;19931;-36
2023/12/27 03:26:04;;;;;;;;;;;12.40;54.60;;;12.56;58.16;101272.22;5073585;28;20004;-36
2023/12/27 03:28:32;;;;;;;;;;;12.40;54.60;;;12.57;57.95;101263.97;5072508;28;20007;-36
2023/12/27 03:31:00;;;;;;;;;;;12.40;54.70;;;12.56;57.86;101255.53;5073682;28;20384;-36
2023/12/27 03:33:28;;;;;;;;;;;12.40;54.60;;;12.57;57.56;101249.78;5073693;28;19929;-35
2023/12/27 03:35:57;;;;;;;;;;;12.40;54.70;;;12.56;57.78;101242.03;5073263;28;19924;-35
2023/12/27 03:38:25;;;;;;;;;;;12.40;54.60;;;12.57;57.59;101244.75;5064638;28;20347;-35
2023/12/27 03:40:53;;;;;;;;;;;12.40;54.60;;;12.58;58.27;101241.56;5073300;28;19930;-35
2023/12/27 03:43:21;;;;;;;;;;;12.40;54.60;;;12.56;57.48;101227.88;5073077;28;19931;-35
2023/12/27 03:45:50;;;;;;;;;;;12.40;54.60;;;12.57;58.13;101224.66;5073089;28;19931;-35
2023/12/27 03:48:18;;;;;;;;;;;12.40;54.60;;;12.57;57.87;101224.66;5072748;28;19928;-36
2023/12/27 03:50:46;;;;;;;;;;;12.40;54.60;;;12.57;58.13;101213.69;5073308;28;19925;-36
2023/12/27 03:53:15;;;;;;;;;;;12.40;54.60;;;12.57;57.51;101219.63;5072688;28;20373;-36
2023/12/27 03:55:43;;;;;;;;;;;12.40;54.50;;;12.57;57.67;101224.66;5072690;28;20011;-36
2023/12/27 03:58:11;;;;;;;;;;;12.40;54.60;;;12.57;58.53;101229.69;5072267;28;19924;-36
2023/12/27 04:00:39;;;;;;;;;;;12.40;54.60;;;12.56;57.74;101227.88;5072840;28;19960;-35
2023/12/27 04:03:07;;;;;;;;;;;12.40;54.60;;;12.56;57.58;101232.91;5072065;28;20403;-36
2023/12/27 04:05:35;;;;;;;;;;;12.40;54.50;;;12.56;58.27;101232.91;5072534;28;19930;-35
2023/12/27 04:08:05;;;;;;;;;;;12.40;54.50;;;12.55;58.59;101226.06;5072119;28;19932;-35
2023/12/27 04:10:34;;;;;;;;;;;12.40;54.50;;;12.53;58.17;101232.47;5072469;28;20390;-37
2023/12/27 04:13:02;;;;;;;;;;;12.40;54.50;;;12.51;57.27;101243.97;5072492;28;19994;-37
2023/12/27 04:15:31;;;;;;;;;;;12.30;54.70;;;12.49;57.50;101241.25;5072457;28;20410;-37
2023/12/27 04:17:59;;;;;;;;;;;12.30;54.50;;;12.49;58.38;101241.25;5071920;28;19928;-37
2023/12/27 04:20:28;;;;;;;;;;;12.30;54.50;;;12.48;57.84;101244.44;5072490;28;19929;-36
2023/12/27 04:22:55;;;;;;;;;;;12.30;54.50;;;12.48;57.71;101238.50;5067200;28;20415;-36
2023/12/27 04:25:23;;;;;;;;;;;12.30;54.50;;;12.48;57.71;101243.53;5072429;28;19924;-36
2023/12/27 04:27:52;;;;;;;;;;;12.30;54.60;;;12.46;57.70;101225.75;5071711;28;19933;-36
2023/12/27 04:30:20;;;;;;;;;;;12.30;54.60;;;12.45;58.13;101223.97;5072090;28;19925;-36
2023/12/27 04:32:48;;;;;;;;;;;12.30;54.50;;;12.45;57.65;101218.03;5072346;28;19924;-36
2023/12/27 04:35:16;;;;;;;;;;;12.30;54.60;;;12.44;58.23;101221.22;5072031;28;19924;-37
2023/12/27 04:37:44;;;;;;;;;;;12.30;54.60;;;12.45;57.82;101213.91;5071813;28;19925;-36
2023/12/27 04:40:12;;;;;;;;;;;12.30;54.60;;;12.49;57.74;101213.59;5071698;28;19924;-36
2023/12/27 04:42:40;;;;;;;;;;;12.30;54.50;;;12.53;57.43;101222.44;5072046;28;19931;-36
2023/12/27 04:45:10;;;;;;;;;;;12.40;54.60;;;12.57;57.36;101214.59;5071721;28;20441;-36
2023/12/27 04:47:39;;;;;;;;;;;12.40;54.60;;;12.64;57.79;101217.22;5071511;28;19925;-36
2023/12/27 04:50:08;;;;;;;;;;;12.50;54.50;;;12.74;57.75;101225.25;5072114;28;19985;-36
2023/12/27 04:52:36;;;;;;;;;;;12.50;54.30;;;12.78;57.61;101232.47;5072090;28;19924;-36
2023/12/27 04:55:05;;;;;;;;;;;12.60;54.30;;;12.86;57.14;101241.91;5071621;28;19977;-36
2023/12/27 04:57:33;;;;;;;;;;;12.60;54.20;;;12.94;57.08;101239.50;5071614;28;19971;-36
2023/12/27 05:00:01;;;;;;;;;;;12.60;54.10;;;12.98;56.74;101246.72;5072386;28;20015;-36
2023/12/27 05:02:30;;;;;;;;;;;12.70;54.10;;;13.03;56.74;101240.69;5072074;28;19924;-36
2023/12/27 05:04:58;;;;;;;;;;;12.70;54.00;;;13.04;56.44;101232.44;5071942;28;19932;-36
2023/12/27 05:07:26;;;;;;;;;;;12.70;54.00;;;13.00;57.08;101230.22;5071407;28;19931;-36
2023/12/27 05:09:54;;;;;;;;;;;12.70;53.90;;;12.97;56.55;101234.84;5071857;28;19924;-35
2023/12/27 05:12:22;;;;;;;;;;;12.70;53.90;;;12.93;56.58;101237.69;5071873;28;19931;-36
2023/12/27 05:14:50;;;;;;;;;;;12.70;53.90;;;12.85;56.48;101230.03;5072287;28;19924;-36
2023/12/27 05:17:18;;;;;;;;;;;12.70;53.90;;;12.84;56.69;101238.28;5071322;28;20011;-36
2023/12/27 05:19:47;;;;;;;;;;;12.70;54.00;;;12.81;57.59;101232.88;5071825;28;20038;-36
2023/12/27 05:22:16;;;;;;;;;;;12.70;54.10;;;12.76;56.84;101235.50;5071460;28;19924;-36
2023/12/27 05:24:44;;;;;;;;;;;12.60;54.10;;;12.74;57.50;101230.28;5071465;28;19925;-36
2023/12/27 05:27:12;;;;;;;;;;;12.60;54.20;;;12.73;57.66;101223.41;5071594;28;19975;-36
2023/12/27 05:29:40;;;;;;;;;;;12.60;54.20;;;12.69;57.50;101231.28;5071732;28;19928;-36
2023/12/27 05:32:08;;;;;;;;;;;12.50;54.10;;;12.67;57.66;101227.66;5071545;28;19924;-35
2023/12/27 05:34:36;;;;;;;;;;;12.50;54.10;;;12.64;57.06;101232.31;5072151;28;19971;-36
2023/12/27 05:37:06;;;;;;;;;;;12.50;54.20;;;12.60;57.66;101230.06;5070870;28;20396;-36
2023/12/27 05:39:33;;;;;;;;;;;12.50;54.20;;;12.58;57.29;101226.47;5063860;28;20007;-36
2023/12/27 05:42:01;;;;;;;;;;;12.40;54.20;;;12.55;57.71;101231.09;5071696;28;19930;-36
2023/12/27 05:44:29;;;;;;;;;;;12.40;54.20;;;12.53;58.13;101224.03;5071314;28;19924;-36
2023/12/27 05:46:58;;;;;;;;;;;12.40;54.20;;;12.50;57.43;101212.00;5070995;28;20011;-36
2023/12/27 05:49:26;;;;;;;;;;;12.40;54.20;;;12.47;57.62;101216.59;5071256;28;19932;-36
2023/12/27 05:51:54;;;;;;;;;;;12.30;54.10;;;12.45;57.95;101218.03;5071823;28;19978;-36
2023/12/27 05:54:26;;;;;;;;;;;12.30;54.10;;;12.42;57.61;101212.56;5074909;28;20351;-36
2023/12/27 05:56:54;;;;;;;;;;;12.30;54.10;;;12.41;57.63;101205.75;5074598;28;20015;-36
2023/12/27 05:59:22;;;;;;;;;;;12.30;54.20;;;12.38;57.49;101200.31;5074784;28;20295;-35
2023/12/27 06:01:52;;;;;;;;;;;12.30;54.20;;;12.37;58.08;101203.53;5074718;28;20011;-36
2023/12/27 06:04:20;;;;;;;;;;;12.20;54.20;;;12.37;57.32;101198.50;5074450;28;19931;-36
2023/12/27 06:06:49;;;;;;;;;;;12.20;54.30;;;12.37;57.19;101183.44;5074670;28;19924;-35
2023/12/27 06:09:17;;;;;;;;;;;12.20;54.30;;;12.36;58.01;101186.66;5074853;28;20465;-35
2023/12/27 06:11:46;;;;;;;;;;;12.20;54.30;;;12.36;57.53;101191.66;5074634;28;19924;-36
2023/12/27 06:14:14;;;;;;;;;;;12.20;54.30;;;12.36;57.36;101191.66;5074520;28;20019;-36
2023/12/27 06:16:43;;;;;;;;;;;12.20;54.20;;;12.39;57.49;101187.06;5074027;28;19934;-35
2023/12/27 06:19:11;;;;;;;;;;;12.30;54.30;;;12.40;57.12;101182.22;5074172;28;20366;-36
2023/12/27 06:21:39;;;;;;;;;;;12.30;54.20;;;12.43;57.41;101179.22;5072694;28;19928;-36
2023/12/27 06:24:08;;;;;;;;;;;12.30;54.20;;;12.47;57.65;101177.28;5071041;28;20383;-36
2023/12/27 06:26:36;;;;;;;;;;;12.30;54.20;;;12.51;56.77;101183.63;5074634;28;20015;-36
2023/12/27 06:29:05;;;;;;;;;;;12.30;54.20;;;12.52;57.41;101175.38;5073748;28;19928;-36
2023/12/27 06:31:34;;;;;;;;;;;12.40;54.30;;;12.59;58.25;101172.94;5066311;28;19929;-36
2023/12/27 06:34:02;;;;;;;;;;;12.40;54.20;;;12.62;57.23;101172.44;5074167;28;19928;-36
2023/12/27 06:36:31;;;;;;;;;;;12.40;54.20;;;12.64;56.89;101166.94;5073824;28;20388;-36
2023/12/27 06:38:59;;;;;;;;;;;12.50;54.20;;;12.72;57.60;101176.34;5073742;28;19947;-36
2023/12/27 06:41:27;;;;;;;;;;;12.50;54.10;;;12.72;57.20;101166.28;5074031;28;20350;-36
2023/12/27 06:43:55;;;;;;;;;;;12.50;54.00;;;12.77;56.74;101169.44;5073820;28;19924;-36
2023/12/27 06:46:24;;;;;;;;;;;12.50;53.90;;;12.78;57.15;101172.13;5073776;28;19931;-36
2023/12/27 06:48:52;;;;;;;;;;;12.60;54.00;;;12.81;56.82;101170.00;5073548;28;20366;-36
2023/12/27 06:51:20;;;;;;;;;;;12.60;54.00;;;12.78;56.24;101177.16;5073781;28;19931;-36
2023/12/27 06:53:48;;;;;;;;;;;12.60;54.00;;;12.77;56.55;101167.78;5073808;28;19968;-36
2023/12/27 06:56:16;;;;;;;;;;;12.60;54.00;;;12.76;57.42;101157.56;5073416;28;19968;-35
2023/12/27 06:58:44;;;;;;;;;;;12.60;54.00;;;12.73;56.91;101165.59;5074471;28;19931;-36
2023/12/27 07:01:12;;;;;;;;;;;12.60;54.00;;;12.71;56.88;101154.41;5074147;28;19935;-36
2023/12/27 07:03:42;;;;;;;;;;;12.50;54.00;;;12.68;56.99;101148.09;5073633;28;19964;-36
2023/12/27 07:06:10;;;;;;;;;;;12.50;54.00;;;12.67;57.25;101152.22;5073302;28;19967;-36
2023/12/27 07:08:38;;;;;;;;;;;12.50;54.00;;;12.65;57.31;101143.56;5073237;28;19928;-36
2023/12/27 07:11:06;;;;;;;;;;;12.50;54.00;;;12.63;56.62;101146.63;5073438;28;19924;-36
2023/12/27 07:13:33;;;;;;;;;;;12.50;54.00;;;12.60;57.60;101149.63;5073374;28;19960;-36
2023/12/27 07:16:01;;;;;;;;;;;12.40;54.00;;;12.58;57.14;101150.16;5073336;28;19976;-36
2023/12/27 07:18:30;;;;;;;;;;;12.40;54.00;;;12.56;58.04;101147.44;5072712;28;19925;-35
2023/12/27 07:21:00;;;;;;;;;;;12.40;54.10;;;12.54;56.98;101151.34;5073216;28;20441;-36
2023/12/27 07:23:28;;;;;;;;;;;12.40;54.10;;;12.52;57.13;101145.19;5066533;28;19931;-35
2023/12/27 07:25:56;;;;;;;;;;;12.40;54.10;;;12.50;57.27;101134.06;5074333;28;19924;-36
2023/12/27 07:28:24;;;;;;;;;;;12.30;54.00;;;12.48;57.68;101132.94;5073722;28;20380;-36
2023/12/27 07:30:52;;;;;;;;;;;12.30;54.10;;;12.46;57.54;101134.34;5073092;28;20010;-36
2023/12/27 07:33:20;;;;;;;;;;;12.30;54.10;;;12.43;57.64;101133.97;5072989;28;19931;-36
2023/12/27 07:35:49;;;;;;;;;;;12.30;54.10;;;12.43;57.41;101123.91;5072981;28;19928;-36
2023/12/27 07:38:18;;;;;;;;;;;12.30;54.10;;;12.41;57.15;101118.69;5072657;28;20015;-36
2023/12/27 07:40:46;;;;;;;;;;;12.30;54.10;;;12.40;56.86;101113.44;5073283;28;19931;-36
2023/12/27 07:43:14;;;;;;;;;;;12.30;54.10;;;12.38;58.21;101104.84;5072607;28;19929;-36
2023/12/27 07:45:44;;;;;;;;;;;12.20;54.00;;;12.35;57.30;101095.28;5072948;28;19946;-36
2023/12/27 07:48:12;;;;;;;;;;;12.20;54.00;;;12.36;57.81;101091.16;5072341;28;19982;-36
2023/12/27 07:50:40;;;;;;;;;;;12.20;54.10;;;12.36;57.72;101088.63;5072792;28;19978;-36
2023/12/27 07:53:08;;;;;;;;;;;12.20;54.10;;;12.33;57.38;101088.25;5065209;28;19925;-36
2023/12/27 07:55:38;;;;;;;;;;;12.20;54.10;;;12.36;57.38;101086.13;5072322;28;20394;-36
2023/12/27 07:58:06;;;;;;;;;;;12.20;54.00;;;12.37;57.20;101087.94;5072222;28;19975;-36
2023/12/27 08:00:33;;;;;;;;;;;12.20;54.00;;;12.37;57.28;101083.81;5072416;28;19934;-36
2023/12/27 08:03:07;;;;;;;;;;;12.20;54.00;;;12.40;58.05;101083.28;5072779;28;19928;-36
2023/12/27 08:05:36;;;;;;;;;;;12.20;54.10;;;12.39;57.19;101073.97;5072079;28;19932;-36
2023/12/27 08:08:04;;;;;;;;;;;12.30;54.10;;;12.42;57.42;101074.34;5071785;28;20318;-36
2023/12/27 08:10:32;;;;;;;;;;;12.30;54.00;;;12.45;57.82;101077.28;5072359;28;20019;-36
2023/12/27 08:13:02;;;;;;;;;;;12.30;54.00;;;12.49;56.56;101064.41;5072426;28;19925;-36
2023/12/27 08:15:30;;;;;;;;;;;12.30;54.00;;;12.26;57.71;101018.72;5071364;28;20035;-35
2023/12/27 08:17:58;;;;;;;;;;;12.30;54.00;;;12.57;56.85;101052.81;5072006;28;19924;-36
2023/12/27 08:20:27;;;;;;;;;;;12.40;54.10;;;12.58;57.44;101050.50;5072286;28;20015;-36
2023/12/27 08:22:55;;;;;;;;;;;12.40;54.00;;;12.64;56.84;101046.25;5072108;28;20022;-36
2023/12/27 08:25:23;;;;;;;;;;;12.40;53.90;;;12.64;56.62;101036.19;5071876;28;20019;-36
2023/12/27 08:27:50;;;;;;;;;;;12.40;53.90;;;12.71;57.19;101032.88;5071912;28;19924;-36
2023/12/27 08:30:20;;;;;;;;;;;12.50;53.90;;;12.70;56.68;101021.00;5072078;28;19924;-36
2023/12/27 08:32:48;;;;;;;;;;;12.50;53.90;;;12.69;56.81;101025.13;5072346;28;19925;-35
2023/12/27 08:35:16;;;;;;;;;;;12.50;53.90;;;12.75;57.01;101030.94;5071930;28;19928;-35
2023/12/27 08:37:47;;;;;;;;;;;12.50;53.80;;;12.74;56.78;101024.09;5071631;28;19924;-36
2023/12/27 08:40:15;;;;;;;;;;;12.50;53.80;;;12.73;56.48;101029.81;5072081;28;19974;-36
2023/12/27 08:42:43;;;;;;;;;;;12.50;53.80;;;12.70;57.37;101026.94;5071560;28;19934;-36
2023/12/27 08:45:11;;;;;;;;;;;12.50;53.80;;;12.70;56.97;101028.53;5072211;28;19925;-36
2023/12/27 08:47:40;;;;;;;;;;;12.50;53.70;;;12.67;56.45;101026.53;5071598;28;20338;-36
2023/12/27 08:50:09;;;;;;;;;;;12.50;53.80;;;12.64;56.62;101036.19;5071717;28;20430;-36
2023/12/27 08:52:38;;;;;;;;;;;12.50;53.80;;;12.64;56.87;101035.28;5071570;28;20417;-36
2023/12/27 08:55:08;;;;;;;;;;;12.50;54.50;;;12.61;56.61;101035.78;5072806;28;19968;-36
2023/12/27 08:57:36;;;;;;;;;;;12.40;53.80;;;12.59;57.46;101024.63;5071545;28;19944;-36
2023/12/27 09:00:10;;;;;;;;;;;12.40;53.90;;;12.57;56.82;101012.59;5071986;28;19986;-37
2023/12/27 09:02:38;;;;;;;;;;;12.40;53.90;;;12.54;57.30;101023.16;5072032;28;19982;-36
2023/12/27 09:05:08;;;;;;;;;;;12.40;53.90;;;12.52;56.97;101022.03;5071915;28;19999;-36
2023/12/27 09:07:36;;;;;;;;;;;12.30;53.90;;;12.41;56.94;101004.69;5071259;28;20060;-36
2023/12/27 09:10:05;;;;;;;;;;;12.30;53.90;;;12.50;57.97;101031.00;5071844;28;19951;-36
2023/12/27 09:12:33;;;;;;;;;;;12.30;53.90;;;12.46;57.32;101026.28;5071630;28;20023;-35
2023/12/27 09:15:01;;;;;;;;;;;12.30;54.00;;;12.45;57.83;101032.03;5071807;28;20309;-36
2023/12/27 09:17:29;;;;;;;;;;;12.30;54.00;;;12.43;56.77;101029.31;5071162;28;20328;-36
2023/12/27 09:19:57;;;;;;;;;;;12.30;54.00;;;12.40;57.31;101012.94;5071522;28;19963;-36
2023/12/27 09:22:27;;;;;;;;;;;12.30;54.10;;;12.39;56.87;101021.19;5071815;28;20315;-36
2023/12/27 09:24:55;;;;;;;;;;;12.20;54.00;;;12.38;57.75;101015.28;5071919;28;19970;-36
2023/12/27 09:27:26;;;;;;;;;;;12.20;54.10;;;12.38;57.16;101009.34;5072553;28;19925;-36
2023/12/27 09:29:53;;;;;;;;;;;12.20;54.10;;;12.33;57.66;101001.19;5076497;28;19924;-36
2023/12/27 09:32:21;;;;;;;;;;;12.20;54.10;;;12.35;57.44;101004.81;5079039;28;19931;-36
2023/12/27 09:34:49;;;;;;;;;;;12.20;54.10;;;12.34;57.87;101002.09;5079099;28;19928;-36
2023/12/27 09:37:17;;;;;;;;;;;12.20;54.10;;;12.34;58.11;101008.03;5083792;28;19924;-36
2023/12/27 09:39:47;;;;;;;;;;;12.20;54.80;;;12.34;57.63;101013.06;5070068;28;20366;-36
2023/12/27 09:42:15;;;;;;;;;;;12.20;54.10;;;12.35;57.83;101008.94;5075131;28;20352;-35
2023/12/27 09:44:43;;;;;;;;;;;12.20;54.10;;;12.36;57.64;101008.22;5066924;28;20007;-36
2023/12/27 09:47:11;;;;;;;;;;;12.20;54.10;;;12.36;57.37;101015.78;5074628;28;19924;-35
2023/12/27 09:49:39;;;;;;;;;;;12.20;54.00;;;12.37;57.52;101012.56;5075077;28;19932;-36
2023/12/27 09:52:07;;;;;;;;;;;12.20;54.00;;;12.39;57.09;100996.06;5076666;28;19924;-36
2023/12/27 09:54:35;;;;;;;;;;;12.20;54.00;;;12.42;58.07;101001.47;5075390;28;20019;-36
2023/12/27 09:57:05;;;;;;;;;;;12.20;54.00;;;12.44;57.43;100995.03;5075002;28;19932;-36
2023/12/27 09:59:38;;;;;;;;;;;12.30;54.00;;;12.47;56.86;100995.41;5074979;28;20581;-36
2023/12/27 10:02:06;;;;;;;;;;;12.30;54.00;;;12.49;57.05;100991.50;5075360;28;19931;-36
2023/12/27 10:04:39;;;;;;;;;;;12.30;54.00;;;12.53;57.11;100981.13;5074805;28;20368;-36
2023/12/27 10:07:07;;;;;;;;;;;12.30;53.90;;;12.43;57.03;100963.97;5074868;28;19931;-36
2023/12/27 10:09:35;;;;;;;;;;;12.40;54.00;;;12.58;57.50;100985.16;5074875;28;20014;-36
2023/12/27 10:12:05;;;;;;;;;;;12.40;54.00;;;12.59;56.87;100971.84;5074728;28;19936;-36
2023/12/27 10:14:33;;;;;;;;;;;12.40;54.50;;;12.63;56.33;100970.63;5074983;28;19998;-36
2023/12/27 10:17:02;;;;;;;;;;;12.40;53.90;;;12.67;57.19;100981.28;5074857;28;19925;-37
2023/12/27 10:19:37;;;;;;;;;;;12.50;54.00;;;12.70;56.99;100966.59;5075056;28;19924;-36
2023/12/27 10:22:05;;;;;;;;;;;12.50;53.90;;;12.68;57.05;100957.94;5072458;28;19995;-36
2023/12/27 10:24:34;;;;;;;;;;;12.50;53.90;;;12.75;57.16;100955.50;5074378;28;19963;-36
2023/12/27 10:27:02;;;;;;;;;;;12.50;53.80;;;12.73;56.90;100935.88;5080752;22;19929;-36
2023/12/27 10:29:32;;;;;;;;;;;12.50;53.80;;;12.72;56.39;100937.50;5053983;28;19924;-35
2023/12/27 10:32:00;;;;;;;;;;;12.50;53.80;;;12.73;56.68;100936.78;5055068;28;20034;-33
2023/12/27 10:34:28;;;;;;;;;;;12.50;53.80;;;12.72;57.56;100929.94;5054348;28;19975;-33
2023/12/27 10:36:57;;;;;;;;;;;12.50;53.80;;;12.70;56.71;100921.34;5054112;28;19925;-32
2023/12/27 10:39:25;;;;;;;;;;;12.50;53.80;;;12.64;57.45;100915.53;5036955;28;19987;-32
2023/12/27 10:41:54;;;;;;;;;;;12.50;53.90;;;12.68;57.08;100927.78;5039394;28;20433;-34
2023/12/27 10:44:22;;;;;;;;;;;12.50;53.90;;;12.64;56.46;100918.03;5038050;28;20364;-40
2023/12/27 10:46:53;;;;;;;;;;;12.50;53.90;;;12.61;57.71;100905.06;5034085;28;19931;-33
2023/12/27 10:49:21;;;;;;;;;;;12.50;54.00;;;12.62;57.32;100906.88;5034486;28;19964;-36
2023/12/27 10:51:49;;;;;;;;;;;12.50;54.00;;;12.61;57.40;100905.06;5035074;28;19979;-37
2023/12/27 10:54:17;;;;;;;;;;;12.40;54.00;;;12.60;56.94;100893.22;5035200;28;19925;-37
2023/12/27 10:56:45;;;;;;;;;;;12.40;54.00;;;12.59;56.75;100886.38;5042512;28;19987;-32
2023/12/27 10:59:12;;;;;;;;;;;12.40;54.00;;;12.54;57.29;100872.34;5034988;28;19925;-33
2023/12/27 11:01:41;;;;;;;;;;;12.40;54.00;;;12.55;57.27;100874.16;5042559;28;20008;-32
2023/12/27 11:04:11;;;;;;;;;;;12.40;54.10;;;12.51;57.45;100871.97;5033998;28;19925;-35
2023/12/27 11:06:40;;;;;;;;;;;12.40;54.10;;;12.51;57.23;100871.97;5034121;28;19932;-33
2023/12/27 11:09:09;;;;;;;;;;;12.40;54.70;;;12.52;57.17;100878.78;5034647;28;20020;-33
2023/12/27 11:11:38;;;;;;;;;;;12.40;54.10;;;12.50;57.46;100875.19;5034086;28;19934;-33
2023/12/27 11:14:07;;;;;;;;;;;12.30;54.10;;;12.49;57.55;100874.28;5034176;28;19929;-34